PWSweather.com
Personal Weather Stations
Station Observations
KTXDECATUR
Wildwood, Decatur, TX 76234

WildwoodDecatur, TX 76234

Lat: 33.2634, Lon: -97.6651

Elevation: 800

Station Type: Davis Vantage Pro 2

http://weather.wildwoodnaturist.com

Latest ConditionsUpdated 6:20:02 AM CDT Tuesday, Mar 31, 2015
Currently Today's Max Today's Min Today's Average
Temperature 64.1°F17.8°C 68.8°F20.4°C 63.7°F17.6°C 66.4°F19.1°C
Dew Point 61.4°F16.3°C 64.2°F17.9°C 61.0°F16.1°C 62.6°F17.0°C
Winds 3.5 mph S5.6 kmh S 8.1 mph S13.0 kmh S - 3.0 mph 4.8 kmh
Wind Gusts 5.8 mph9.3 kmh 15.0 mph24.1 kmh - -
Humidity 91% 92% 85% 88%
Pressure 29.91 in1012.9 mb 29.95 in1014.2 mb 29.89 in1012.2 mb -
Hour Temp Dew Point Humidity Winds Wind Gusts Pressure Precip Precip Rate Daily Precip Total
06:20 AM 64.1°F17.8°C 61.4°F16.3°C 91% 3.5 mph S5.6 kmh S 5.8 mph9.3 kmh 29.91 in1012.9 mb - 0.00 in0.0 mm 0.00 in0.0 mm
06:15 AM 64.0°F17.8°C 61.6°F16.4°C 92% 3.5 mph S5.6 kmh S 5.8 mph9.3 kmh 29.91 in1012.9 mb - 0.00 in0.0 mm 0.00 in0.0 mm
06:10 AM 63.8°F17.7°C 61.5°F16.4°C 92% 3.5 mph S5.6 kmh S 6.9 mph11.1 kmh 29.91 in1012.9 mb - 0.00 in0.0 mm 0.00 in0.0 mm
06:00 AM 63.7°F17.6°C 61.0°F16.1°C 91% 2.3 mph S3.7 kmh S 4.6 mph7.4 kmh 29.91 in1012.9 mb - 0.00 in0.0 mm 0.00 in0.0 mm
05:50 AM 63.8°F17.7°C 61.1°F16.2°C 91% 2.3 mph S3.7 kmh S 4.6 mph7.4 kmh 29.91 in1012.9 mb - 0.00 in0.0 mm 0.00 in0.0 mm
05:45 AM 63.8°F17.7°C 61.2°F16.2°C 91% 1.2 mph S1.9 kmh S 4.6 mph7.4 kmh 29.91 in1012.9 mb - 0.00 in0.0 mm 0.00 in0.0 mm
05:40 AM 63.9°F17.7°C 61.2°F16.2°C 91% 2.3 mph S3.7 kmh S 3.5 mph5.6 kmh 29.90 in1012.5 mb - 0.00 in0.0 mm 0.00 in0.0 mm
05:30 AM 64.1°F17.8°C 61.4°F16.3°C 91% Calm Calm 1.2 mph1.9 kmh 29.90 in1012.5 mb - 0.00 in0.0 mm 0.00 in0.0 mm
05:20 AM 64.2°F17.9°C 61.5°F16.4°C 91% Calm Calm 1.2 mph1.9 kmh 29.90 in1012.5 mb - 0.00 in0.0 mm 0.00 in0.0 mm
05:15 AM 64.3°F17.9°C 61.3°F16.3°C 90% Calm Calm -- 29.90 in1012.5 mb - 0.00 in0.0 mm 0.00 in0.0 mm
05:10 AM 64.4°F18.0°C 61.4°F16.3°C 90% Calm Calm -- 29.90 in1012.5 mb - 0.00 in0.0 mm 0.00 in0.0 mm
05:00 AM 64.5°F18.1°C 61.5°F16.4°C 90% Calm Calm -- 29.90 in1012.5 mb - 0.00 in0.0 mm 0.00 in0.0 mm
04:50 AM 64.7°F18.2°C 61.7°F16.5°C 90% Calm Calm -- 29.90 in1012.5 mb - 0.00 in0.0 mm 0.00 in0.0 mm
04:45 AM 64.8°F18.2°C 61.8°F16.6°C 90% Calm Calm -- 29.89 in1012.2 mb - 0.00 in0.0 mm 0.00 in0.0 mm
04:40 AM 64.8°F18.2°C 61.8°F16.6°C 90% Calm Calm 4.6 mph7.4 kmh 29.89 in1012.2 mb - 0.00 in0.0 mm 0.00 in0.0 mm
04:30 AM 64.9°F18.3°C 61.6°F16.4°C 89% 1.2 mph S1.9 kmh S 3.5 mph5.6 kmh 29.89 in1012.2 mb - 0.00 in0.0 mm 0.00 in0.0 mm
04:20 AM 65.1°F18.4°C 61.8°F16.6°C 89% 1.2 mph S1.9 kmh S 2.3 mph3.7 kmh 29.90 in1012.5 mb - 0.00 in0.0 mm 0.00 in0.0 mm
04:15 AM 65.2°F18.4°C 61.9°F16.6°C 89% 1.2 mph S1.9 kmh S 4.6 mph7.4 kmh 29.90 in1012.5 mb - 0.00 in0.0 mm 0.00 in0.0 mm
04:10 AM 65.3°F18.5°C 62.0°F16.7°C 89% 2.3 mph S3.7 kmh S 3.5 mph5.6 kmh 29.90 in1012.5 mb - 0.00 in0.0 mm 0.00 in0.0 mm
04:00 AM 65.6°F18.7°C 62.3°F16.8°C 89% Calm Calm -- 29.90 in1012.5 mb - 0.00 in0.0 mm 0.00 in0.0 mm
03:50 AM 65.7°F18.7°C 62.0°F16.7°C 88% Calm Calm 3.5 mph5.6 kmh 29.90 in1012.5 mb - 0.00 in0.0 mm 0.00 in0.0 mm
03:45 AM 65.8°F18.8°C 62.1°F16.7°C 88% 1.2 mph S1.9 kmh S 3.5 mph5.6 kmh 29.90 in1012.5 mb - 0.00 in0.0 mm 0.00 in0.0 mm
03:40 AM 65.9°F18.8°C 62.2°F16.8°C 88% 1.2 mph S1.9 kmh S 3.5 mph5.6 kmh 29.90 in1012.5 mb - 0.00 in0.0 mm 0.00 in0.0 mm
03:30 AM 66.2°F19.0°C 62.2°F16.8°C 87% Calm Calm -- 29.91 in1012.9 mb - 0.00 in0.0 mm 0.00 in0.0 mm
03:20 AM 66.4°F19.1°C 62.4°F16.9°C 87% 1.2 mph S1.9 kmh S 1.2 mph1.9 kmh 29.91 in1012.9 mb - 0.00 in0.0 mm 0.00 in0.0 mm
03:15 AM 66.5°F19.2°C 62.5°F16.9°C 87% 2.3 mph S3.7 kmh S 3.5 mph5.6 kmh 29.91 in1012.9 mb - 0.00 in0.0 mm 0.00 in0.0 mm
03:10 AM 66.6°F19.2°C 62.6°F17.0°C 87% 3.5 mph S5.6 kmh S 4.6 mph7.4 kmh 29.91 in1012.9 mb - 0.00 in0.0 mm 0.00 in0.0 mm
03:00 AM 66.9°F19.4°C 62.6°F17.0°C 86% 1.2 mph S1.9 kmh S 2.3 mph3.7 kmh 29.91 in1012.9 mb - 0.00 in0.0 mm 0.00 in0.0 mm
02:50 AM 67.2°F19.6°C 63.2°F17.3°C 87% Calm Calm -- 29.92 in1013.2 mb - 0.00 in0.0 mm 0.00 in0.0 mm
02:45 AM 67.2°F19.6°C 63.2°F17.3°C 87% 2.3 mph S3.7 kmh S 3.5 mph5.6 kmh 29.92 in1013.2 mb - 0.00 in0.0 mm 0.00 in0.0 mm
02:40 AM 67.2°F19.6°C 63.2°F17.3°C 87% 4.6 mph S7.4 kmh S 6.9 mph11.1 kmh 29.91 in1012.9 mb - 0.00 in0.0 mm 0.00 in0.0 mm
02:30 AM 67.2°F19.6°C 63.2°F17.3°C 87% 5.8 mph S9.3 kmh S 8.1 mph13.0 kmh 29.91 in1012.9 mb - 0.00 in0.0 mm 0.00 in0.0 mm
02:20 AM 67.3°F19.6°C 63.0°F17.2°C 86% 6.9 mph S11.1 kmh S 9.2 mph14.8 kmh 29.91 in1012.9 mb - 0.00 in0.0 mm 0.00 in0.0 mm
02:15 AM 67.4°F19.7°C 63.1°F17.3°C 86% 5.8 mph S9.3 kmh S 9.2 mph14.8 kmh 29.92 in1013.2 mb - 0.00 in0.0 mm 0.00 in0.0 mm
02:10 AM 67.5°F19.7°C 63.2°F17.3°C 86% 2.3 mph S3.7 kmh S 8.1 mph13.0 kmh 29.92 in1013.2 mb - 0.00 in0.0 mm 0.00 in0.0 mm
02:00 AM 67.7°F19.8°C 63.4°F17.4°C 86% 5.8 mph S9.3 kmh S 8.1 mph13.0 kmh 29.93 in1013.5 mb - 0.00 in0.0 mm 0.00 in0.0 mm
01:50 AM 67.8°F19.9°C 63.5°F17.5°C 86% 5.8 mph SSE9.3 kmh SSE 9.2 mph14.8 kmh 29.93 in1013.5 mb - 0.00 in0.0 mm 0.00 in0.0 mm
01:45 AM 67.9°F19.9°C 63.5°F17.5°C 86% 6.9 mph S11.1 kmh S 6.9 mph11.1 kmh 29.93 in1013.5 mb - 0.00 in0.0 mm 0.00 in0.0 mm
01:40 AM 67.9°F19.9°C 63.6°F17.6°C 86% 5.8 mph S9.3 kmh S 6.9 mph11.1 kmh 29.93 in1013.5 mb - 0.00 in0.0 mm 0.00 in0.0 mm
01:30 AM 68.0°F20.0°C 63.7°F17.6°C 86% 5.8 mph S9.3 kmh S 5.8 mph9.3 kmh 29.93 in1013.5 mb - 0.00 in0.0 mm 0.00 in0.0 mm
01:20 AM 68.1°F20.1°C 63.5°F17.5°C 85% 3.5 mph SSE5.6 kmh SSE 9.2 mph14.8 kmh 29.94 in1013.9 mb - 0.00 in0.0 mm 0.00 in0.0 mm
01:15 AM 68.2°F20.1°C 63.5°F17.5°C 85% 2.3 mph S3.7 kmh S 5.8 mph9.3 kmh 29.94 in1013.9 mb - 0.00 in0.0 mm 0.00 in0.0 mm
01:10 AM 68.3°F20.2°C 63.6°F17.6°C 85% 5.8 mph S9.3 kmh S 8.1 mph13.0 kmh 29.94 in1013.9 mb - 0.00 in0.0 mm 0.00 in0.0 mm
01:00 AM 68.4°F20.2°C 63.7°F17.6°C 85% 6.9 mph S11.1 kmh S 11.5 mph18.5 kmh 29.94 in1013.9 mb - 0.00 in0.0 mm 0.00 in0.0 mm
12:50 AM 68.6°F20.3°C 63.9°F17.7°C 85% 3.5 mph SSW5.6 kmh SSW 6.9 mph11.1 kmh 29.94 in1013.9 mb - 0.00 in0.0 mm 0.00 in0.0 mm
12:45 AM 68.6°F20.3°C 63.9°F17.7°C 85% 3.5 mph S5.6 kmh S 5.8 mph9.3 kmh 29.94 in1013.9 mb - 0.00 in0.0 mm 0.00 in0.0 mm
12:40 AM 68.6°F20.3°C 63.9°F17.7°C 85% 6.9 mph S11.1 kmh S 10.4 mph16.7 kmh 29.94 in1013.9 mb - 0.00 in0.0 mm 0.00 in0.0 mm
12:30 AM 68.6°F20.3°C 63.9°F17.7°C 85% 5.8 mph SSE9.3 kmh SSE 15.0 mph24.1 kmh 29.94 in1013.9 mb - 0.00 in0.0 mm 0.00 in0.0 mm
12:20 AM 68.7°F20.4°C 64.0°F17.8°C 85% 8.1 mph S13.0 kmh S 8.1 mph13.0 kmh 29.94 in1013.9 mb - 0.00 in0.0 mm 0.00 in0.0 mm
12:15 AM 68.8°F20.4°C 64.1°F17.8°C 85% 8.1 mph S13.0 kmh S 11.5 mph18.5 kmh 29.94 in1013.9 mb - 0.00 in0.0 mm 0.00 in0.0 mm
12:10 AM 68.8°F20.4°C 64.1°F17.8°C 85% 5.8 mph SSE9.3 kmh SSE 8.1 mph13.0 kmh 29.94 in1013.9 mb - 0.00 in0.0 mm 0.00 in0.0 mm
12:00 AM 68.8°F20.4°C 64.2°F17.9°C 85% 4.6 mph SSE7.4 kmh SSE 10.4 mph16.7 kmh 29.95 in1014.2 mb - 0.00 in0.0 mm 0.00 in0.0 mm